Weather Data

Pearl Creek Farm: 8878 N Farm Road 75, Walnut Grove MO 65770

<== Previous Day (Wednesday 27 Aug 2008) | Next Day (Friday 29 Aug 2008) ==>

Summary Precipitation Data For Thursday 28 August 2008

ElementValueUnits
Precipitation0"
Notes(none)
SourceSpringfield-Branson National Airport (SGF)

Summary Temperature Data For Thursday 28 August 2008

ElementValueUnits
High Temperature93 oF
Low Temperature68 oF
Average Temperature80 oF
High Humidity93 %
Low Humidity46 %
Average Humidity71 %
SourceSpringfield-Branson National Airport (SGF)

Detail Temperature Data For Thursday 28 August 2008

Date / TimeTemp (F)RH (%)Dew Pt (F)Report Date / TimeSource
2008-08-28 02:52:00 68 90 65.0 2017-12-29 19:14:24.89625 Springfield-Branson National Airport (SGF)
2008-08-28 03:52:00 69 90 66.0 2017-12-29 19:14:24.89625 Springfield-Branson National Airport (SGF)
2008-08-28 04:52:00 69 93 67.0 2017-12-29 19:14:24.89625 Springfield-Branson National Airport (SGF)
2008-08-28 05:52:00 68 93 66.0 2017-12-29 19:14:24.89625 Springfield-Branson National Airport (SGF)
2008-08-28 06:52:00 70 93 68.0 2017-12-29 19:14:24.89625 Springfield-Branson National Airport (SGF)
2008-08-28 12:52:00 92 47 69.0 2017-12-29 19:14:24.89625 Springfield-Branson National Airport (SGF)
2008-08-28 14:52:00 93 46 69.0 2017-12-29 19:14:24.89625 Springfield-Branson National Airport (SGF)
2008-08-28 23:52:00 77 85 72.0 2017-12-29 19:14:24.89625 Springfield-Branson National Airport (SGF)
2008-08-28 00:52:00 70 84 65.0 2017-12-29 19:14:24.89625 Springfield-Branson National Airport (SGF)
2008-08-28 01:52:00 69 90 66.0 2017-12-29 19:14:24.89625 Springfield-Branson National Airport (SGF)
2008-08-28 07:52:00 76 79 69.0 2017-12-29 19:14:24.89625 Springfield-Branson National Airport (SGF)
2008-08-28 08:52:00 81 69 70.0 2017-12-29 19:14:24.89625 Springfield-Branson National Airport (SGF)
2008-08-28 09:52:00 86 59 70.0 2017-12-29 19:14:24.89625 Springfield-Branson National Airport (SGF)
2008-08-28 10:52:00 89 52 69.0 2017-12-29 19:14:24.89625 Springfield-Branson National Airport (SGF)
2008-08-28 11:52:00 91 49 69.0 2017-12-29 19:14:24.89625 Springfield-Branson National Airport (SGF)
2008-08-28 13:52:00 93 46 69.0 2017-12-29 19:14:24.89625 Springfield-Branson National Airport (SGF)
2008-08-28 15:52:00 93 46 69.0 2017-12-29 19:14:24.89625 Springfield-Branson National Airport (SGF)
2008-08-28 16:52:00 90 50 69.0 2017-12-29 19:14:24.89625 Springfield-Branson National Airport (SGF)
2008-08-28 17:52:00 87 55 69.0 2017-12-29 19:14:24.89625 Springfield-Branson National Airport (SGF)
2008-08-28 18:52:00 83 65 70.0 2017-12-29 19:14:24.89625 Springfield-Branson National Airport (SGF)
2008-08-28 19:52:00 80 74 71.0 2017-12-29 19:14:24.89625 Springfield-Branson National Airport (SGF)
2008-08-28 20:52:00 78 79 71.0 2017-12-29 19:14:24.89625 Springfield-Branson National Airport (SGF)
2008-08-28 21:52:00 77 85 72.0 2017-12-29 19:14:24.89625 Springfield-Branson National Airport (SGF)
2008-08-28 22:52:00 77 82 71.0 2017-12-29 19:14:24.89625 Springfield-Branson National Airport (SGF)

A total of 24 rows are displayed.